sensor_id;sensor_type;location;lat;lon;timestamp;P1;durP1;ratioP1;P2;durP2;ratioP2
51866;SDS011;52862;52.504;13.480;2022-11-14T00:00:53;119.50;;;50.80;;
51866;SDS011;52862;52.504;13.480;2022-11-14T00:03:20;127.57;;;51.13;;
51866;SDS011;52862;52.504;13.480;2022-11-14T00:05:46;125.53;;;51.93;;
51866;SDS011;52862;52.504;13.480;2022-11-14T00:08:15;123.97;;;50.80;;
51866;SDS011;52862;52.504;13.480;2022-11-14T00:10:44;123.63;;;50.27;;
51866;SDS011;52862;52.504;13.480;2022-11-14T00:13:11;126.67;;;54.73;;
51866;SDS011;52862;52.504;13.480;2022-11-14T00:15:38;119.70;;;49.03;;
51866;SDS011;52862;52.504;13.480;2022-11-14T00:18:05;127.77;;;50.80;;
51866;SDS011;52862;52.504;13.480;2022-11-14T00:20:32;128.27;;;52.47;;
51866;SDS011;52862;52.504;13.480;2022-11-14T00:22:58;132.03;;;51.97;;
51866;SDS011;52862;52.504;13.480;2022-11-14T00:25:26;127.17;;;52.27;;
51866;SDS011;52862;52.504;13.480;2022-11-14T00:27:55;114.40;;;48.63;;
51866;SDS011;52862;52.504;13.480;2022-11-14T00:30:22;139.83;;;53.20;;
51866;SDS011;52862;52.504;13.480;2022-11-14T00:32:49;126.23;;;53.33;;
51866;SDS011;52862;52.504;13.480;2022-11-14T00:35:15;131.37;;;53.70;;
51866;SDS011;52862;52.504;13.480;2022-11-14T00:37:42;140.67;;;51.93;;
51866;SDS011;52862;52.504;13.480;2022-11-14T00:40:09;131.83;;;52.73;;
51866;SDS011;52862;52.504;13.480;2022-11-14T00:42:37;141.63;;;53.57;;
51866;SDS011;52862;52.504;13.480;2022-11-14T00:45:04;142.83;;;55.23;;
51866;SDS011;52862;52.504;13.480;2022-11-14T00:47:31;144.27;;;55.00;;
51866;SDS011;52862;52.504;13.480;2022-11-14T00:49:58;146.17;;;54.20;;
51866;SDS011;52862;52.504;13.480;2022-11-14T00:52:24;142.70;;;56.03;;
51866;SDS011;52862;52.504;13.480;2022-11-14T00:54:51;143.37;;;54.40;;
51866;SDS011;52862;52.504;13.480;2022-11-14T00:57:18;134.73;;;53.53;;
51866;SDS011;52862;52.504;13.480;2022-11-14T00:59:45;150.23;;;55.67;;
51866;SDS011;52862;52.504;13.480;2022-11-14T01:02:11;143.50;;;55.70;;
51866;SDS011;52862;52.504;13.480;2022-11-14T01:04:38;142.77;;;55.83;;
51866;SDS011;52862;52.504;13.480;2022-11-14T01:07:05;145.17;;;56.93;;
51866;SDS011;52862;52.504;13.480;2022-11-14T01:09:31;157.53;;;60.23;;
51866;SDS011;52862;52.504;13.480;2022-11-14T01:11:58;143.07;;;56.03;;
51866;SDS011;52862;52.504;13.480;2022-11-14T01:14:25;158.03;;;59.40;;
51866;SDS011;52862;52.504;13.480;2022-11-14T01:16:52;161.87;;;59.17;;
51866;SDS011;52862;52.504;13.480;2022-11-14T01:19:19;162.20;;;58.47;;
51866;SDS011;52862;52.504;13.480;2022-11-14T01:21:45;163.80;;;59.97;;
51866;SDS011;52862;52.504;13.480;2022-11-14T01:24:12;162.37;;;59.10;;
51866;SDS011;52862;52.504;13.480;2022-11-14T01:26:39;174.53;;;59.53;;
51866;SDS011;52862;52.504;13.480;2022-11-14T01:29:05;168.17;;;57.73;;
51866;SDS011;52862;52.504;13.480;2022-11-14T01:31:32;173.80;;;59.83;;
51866;SDS011;52862;52.504;13.480;2022-11-14T01:34:00;164.27;;;59.37;;
51866;SDS011;52862;52.504;13.480;2022-11-14T01:36:26;171.17;;;59.77;;
51866;SDS011;52862;52.504;13.480;2022-11-14T01:38:53;175.97;;;59.67;;
51866;SDS011;52862;52.504;13.480;2022-11-14T01:41:20;169.07;;;59.90;;
51866;SDS011;52862;52.504;13.480;2022-11-14T01:43:47;162.47;;;60.97;;
51866;SDS011;52862;52.504;13.480;2022-11-14T01:46:14;174.70;;;60.13;;
51866;SDS011;52862;52.504;13.480;2022-11-14T01:48:45;162.23;;;57.87;;
51866;SDS011;52862;52.504;13.480;2022-11-14T01:51:20;172.93;;;59.07;;
51866;SDS011;52862;52.504;13.480;2022-11-14T01:53:52;156.20;;;58.13;;
51866;SDS011;52862;52.504;13.480;2022-11-14T01:56:21;170.13;;;59.10;;
51866;SDS011;52862;52.504;13.480;2022-11-14T01:58:53;170.33;;;60.70;;
51866;SDS011;52862;52.504;13.480;2022-11-14T02:01:24;161.47;;;56.27;;
51866;SDS011;52862;52.504;13.480;2022-11-14T02:03:52;172.37;;;56.57;;
51866;SDS011;52862;52.504;13.480;2022-11-14T02:06:23;165.50;;;57.33;;
51866;SDS011;52862;52.504;13.480;2022-11-14T02:08:52;167.40;;;59.70;;
51866;SDS011;52862;52.504;13.480;2022-11-14T02:11:20;169.17;;;58.97;;
51866;SDS011;52862;52.504;13.480;2022-11-14T02:13:47;176.87;;;59.40;;
51866;SDS011;52862;52.504;13.480;2022-11-14T02:16:13;178.87;;;61.47;;
51866;SDS011;52862;52.504;13.480;2022-11-14T02:18:40;163.67;;;58.90;;
51866;SDS011;52862;52.504;13.480;2022-11-14T02:21:07;169.60;;;59.07;;
51866;SDS011;52862;52.504;13.480;2022-11-14T02:23:34;188.30;;;60.57;;
51866;SDS011;52862;52.504;13.480;2022-11-14T02:26:00;180.83;;;60.33;;
51866;SDS011;52862;52.504;13.480;2022-11-14T02:28:27;188.40;;;60.93;;
51866;SDS011;52862;52.504;13.480;2022-11-14T02:30:54;180.90;;;59.83;;
51866;SDS011;52862;52.504;13.480;2022-11-14T02:33:21;164.00;;;59.30;;
51866;SDS011;52862;52.504;13.480;2022-11-14T02:35:48;169.00;;;60.13;;
51866;SDS011;52862;52.504;13.480;2022-11-14T02:38:15;173.63;;;57.10;;
51866;SDS011;52862;52.504;13.480;2022-11-14T02:40:42;153.30;;;54.13;;
51866;SDS011;52862;52.504;13.480;2022-11-14T02:43:08;179.87;;;60.80;;
51866;SDS011;52862;52.504;13.480;2022-11-14T02:45:38;164.57;;;58.03;;
51866;SDS011;52862;52.504;13.480;2022-11-14T02:48:05;156.13;;;56.60;;
51866;SDS011;52862;52.504;13.480;2022-11-14T02:50:31;175.93;;;58.43;;
51866;SDS011;52862;52.504;13.480;2022-11-14T02:52:58;172.70;;;58.37;;
51866;SDS011;52862;52.504;13.480;2022-11-14T02:55:25;158.47;;;56.13;;
51866;SDS011;52862;52.504;13.480;2022-11-14T02:57:52;173.00;;;58.53;;
51866;SDS011;52862;52.504;13.480;2022-11-14T03:00:18;159.80;;;54.50;;
51866;SDS011;52862;52.504;13.480;2022-11-14T03:02:45;169.60;;;57.33;;
51866;SDS011;52862;52.504;13.480;2022-11-14T03:05:12;165.30;;;58.97;;
51866;SDS011;52862;52.504;13.480;2022-11-14T03:07:38;156.37;;;57.73;;
51866;SDS011;52862;52.504;13.480;2022-11-14T03:10:05;165.63;;;57.23;;
51866;SDS011;52862;52.504;13.480;2022-11-14T03:12:34;157.83;;;53.53;;
51866;SDS011;52862;52.504;13.480;2022-11-14T03:15:01;158.67;;;57.13;;
51866;SDS011;52862;52.504;13.480;2022-11-14T03:17:29;173.77;;;58.53;;
51866;SDS011;52862;52.504;13.480;2022-11-14T03:19:56;165.67;;;58.20;;
51866;SDS011;52862;52.504;13.480;2022-11-14T03:22:23;167.90;;;57.83;;
51866;SDS011;52862;52.504;13.480;2022-11-14T03:24:50;160.23;;;54.63;;
51866;SDS011;52862;52.504;13.480;2022-11-14T03:27:17;169.63;;;56.37;;
51866;SDS011;52862;52.504;13.480;2022-11-14T03:29:44;172.70;;;58.17;;
51866;SDS011;52862;52.504;13.480;2022-11-14T03:32:10;164.97;;;55.70;;
51866;SDS011;52862;52.504;13.480;2022-11-14T03:34:37;177.57;;;57.57;;
51866;SDS011;52862;52.504;13.480;2022-11-14T03:37:04;170.30;;;56.47;;
51866;SDS011;52862;52.504;13.480;2022-11-14T03:39:30;171.20;;;57.30;;
51866;SDS011;52862;52.504;13.480;2022-11-14T03:41:57;160.83;;;55.07;;
51866;SDS011;52862;52.504;13.480;2022-11-14T03:44:24;180.17;;;57.40;;
51866;SDS011;52862;52.504;13.480;2022-11-14T03:46:51;162.57;;;54.07;;
51866;SDS011;52862;52.504;13.480;2022-11-14T03:49:17;163.63;;;53.53;;
51866;SDS011;52862;52.504;13.480;2022-11-14T03:51:44;167.40;;;55.67;;
51866;SDS011;52862;52.504;13.480;2022-11-14T03:54:11;171.27;;;56.40;;
51866;SDS011;52862;52.504;13.480;2022-11-14T03:56:37;182.17;;;56.77;;
51866;SDS011;52862;52.504;13.480;2022-11-14T03:59:04;170.27;;;54.80;;
51866;SDS011;52862;52.504;13.480;2022-11-14T04:01:30;184.73;;;56.40;;
51866;SDS011;52862;52.504;13.480;2022-11-14T04:03:58;171.77;;;57.97;;
51866;SDS011;52862;52.504;13.480;2022-11-14T04:06:24;179.97;;;58.87;;
51866;SDS011;52862;52.504;13.480;2022-11-14T04:08:51;188.80;;;57.70;;
51866;SDS011;52862;52.504;13.480;2022-11-14T04:11:17;191.67;;;58.33;;
51866;SDS011;52862;52.504;13.480;2022-11-14T04:13:44;173.87;;;60.60;;
51866;SDS011;52862;52.504;13.480;2022-11-14T04:16:11;183.13;;;58.90;;
51866;SDS011;52862;52.504;13.480;2022-11-14T04:18:37;192.87;;;58.80;;
51866;SDS011;52862;52.504;13.480;2022-11-14T04:21:05;189.73;;;58.90;;
51866;SDS011;52862;52.504;13.480;2022-11-14T04:23:31;174.23;;;58.80;;
51866;SDS011;52862;52.504;13.480;2022-11-14T04:25:58;187.53;;;59.87;;
51866;SDS011;52862;52.504;13.480;2022-11-14T04:28:24;175.00;;;57.97;;
51866;SDS011;52862;52.504;13.480;2022-11-14T04:30:51;187.63;;;58.10;;
51866;SDS011;52862;52.504;13.480;2022-11-14T04:33:18;182.83;;;59.43;;
51866;SDS011;52862;52.504;13.480;2022-11-14T04:35:45;182.47;;;58.80;;
51866;SDS011;52862;52.504;13.480;2022-11-14T04:38:12;191.90;;;59.43;;
51866;SDS011;52862;52.504;13.480;2022-11-14T04:40:38;193.90;;;58.13;;
51866;SDS011;52862;52.504;13.480;2022-11-14T04:43:05;193.97;;;58.20;;
51866;SDS011;52862;52.504;13.480;2022-11-14T04:45:32;186.13;;;58.93;;
51866;SDS011;52862;52.504;13.480;2022-11-14T04:47:58;193.23;;;60.23;;
51866;SDS011;52862;52.504;13.480;2022-11-14T04:50:25;193.93;;;61.93;;
51866;SDS011;52862;52.504;13.480;2022-11-14T04:52:52;197.20;;;59.93;;
51866;SDS011;52862;52.504;13.480;2022-11-14T04:55:19;211.33;;;63.07;;
51866;SDS011;52862;52.504;13.480;2022-11-14T04:57:46;208.87;;;62.20;;
51866;SDS011;52862;52.504;13.480;2022-11-14T05:00:13;208.47;;;58.77;;
51866;SDS011;52862;52.504;13.480;2022-11-14T05:02:40;187.57;;;60.70;;
51866;SDS011;52862;52.504;13.480;2022-11-14T05:05:07;194.23;;;58.83;;
51866;SDS011;52862;52.504;13.480;2022-11-14T05:07:34;190.67;;;59.10;;
51866;SDS011;52862;52.504;13.480;2022-11-14T05:10:01;185.87;;;58.93;;
51866;SDS011;52862;52.504;13.480;2022-11-14T05:12:29;206.07;;;59.43;;
51866;SDS011;52862;52.504;13.480;2022-11-14T05:14:56;204.00;;;61.43;;
51866;SDS011;52862;52.504;13.480;2022-11-14T05:17:23;200.20;;;58.17;;
51866;SDS011;52862;52.504;13.480;2022-11-14T05:19:49;182.37;;;55.83;;
51866;SDS011;52862;52.504;13.480;2022-11-14T05:22:16;187.83;;;59.13;;
51866;SDS011;52862;52.504;13.480;2022-11-14T05:24:43;196.07;;;58.87;;
51866;SDS011;52862;52.504;13.480;2022-11-14T05:27:11;175.67;;;55.60;;
51866;SDS011;52862;52.504;13.480;2022-11-14T05:29:39;191.50;;;56.80;;
51866;SDS011;52862;52.504;13.480;2022-11-14T05:32:05;196.03;;;59.00;;
51866;SDS011;52862;52.504;13.480;2022-11-14T05:34:32;177.40;;;54.57;;
51866;SDS011;52862;52.504;13.480;2022-11-14T05:36:59;163.43;;;56.50;;
51866;SDS011;52862;52.504;13.480;2022-11-14T05:39:25;178.17;;;54.77;;
51866;SDS011;52862;52.504;13.480;2022-11-14T05:41:52;175.60;;;57.77;;
51866;SDS011;52862;52.504;13.480;2022-11-14T05:44:18;175.23;;;56.07;;
51866;SDS011;52862;52.504;13.480;2022-11-14T05:46:46;175.43;;;54.80;;
51866;SDS011;52862;52.504;13.480;2022-11-14T05:49:12;184.70;;;56.17;;
51866;SDS011;52862;52.504;13.480;2022-11-14T05:51:45;169.60;;;55.33;;
51866;SDS011;52862;52.504;13.480;2022-11-14T05:54:12;166.47;;;53.93;;
51866;SDS011;52862;52.504;13.480;2022-11-14T05:56:39;174.10;;;57.13;;
51866;SDS011;52862;52.504;13.480;2022-11-14T05:59:05;176.33;;;57.50;;
51866;SDS011;52862;52.504;13.480;2022-11-14T06:01:32;174.37;;;55.30;;
51866;SDS011;52862;52.504;13.480;2022-11-14T06:03:59;168.33;;;54.07;;
51866;SDS011;52862;52.504;13.480;2022-11-14T06:06:26;178.87;;;56.70;;
51866;SDS011;52862;52.504;13.480;2022-11-14T06:08:53;179.77;;;56.23;;
51866;SDS011;52862;52.504;13.480;2022-11-14T06:11:19;182.67;;;56.07;;
51866;SDS011;52862;52.504;13.480;2022-11-14T06:13:46;185.30;;;56.00;;
51866;SDS011;52862;52.504;13.480;2022-11-14T06:16:13;193.20;;;57.00;;
51866;SDS011;52862;52.504;13.480;2022-11-14T06:18:42;169.10;;;53.97;;
51866;SDS011;52862;52.504;13.480;2022-11-14T06:21:10;169.97;;;54.03;;
51866;SDS011;52862;52.504;13.480;2022-11-14T06:23:38;177.87;;;54.27;;
51866;SDS011;52862;52.504;13.480;2022-11-14T06:26:05;158.30;;;54.07;;
51866;SDS011;52862;52.504;13.480;2022-11-14T06:28:35;180.63;;;58.37;;
51866;SDS011;52862;52.504;13.480;2022-11-14T06:31:03;182.23;;;55.83;;
51866;SDS011;52862;52.504;13.480;2022-11-14T06:33:34;185.60;;;55.57;;
51866;SDS011;52862;52.504;13.480;2022-11-14T06:36:02;174.33;;;55.07;;
51866;SDS011;52862;52.504;13.480;2022-11-14T06:38:31;176.30;;;56.17;;
51866;SDS011;52862;52.504;13.480;2022-11-14T06:41:03;167.93;;;53.00;;
51866;SDS011;52862;52.504;13.480;2022-11-14T06:43:31;179.97;;;54.93;;
51866;SDS011;52862;52.504;13.480;2022-11-14T06:45:58;176.67;;;56.70;;
51866;SDS011;52862;52.504;13.480;2022-11-14T06:48:25;170.80;;;51.93;;
51866;SDS011;52862;52.504;13.480;2022-11-14T06:50:52;185.10;;;57.87;;
51866;SDS011;52862;52.504;13.480;2022-11-14T06:53:19;185.47;;;59.20;;
51866;SDS011;52862;52.504;13.480;2022-11-14T06:55:52;193.73;;;56.87;;
51866;SDS011;52862;52.504;13.480;2022-11-14T06:58:20;183.73;;;55.07;;
51866;SDS011;52862;52.504;13.480;2022-11-14T07:00:46;186.70;;;56.60;;
51866;SDS011;52862;52.504;13.480;2022-11-14T07:03:13;188.23;;;57.07;;
51866;SDS011;52862;52.504;13.480;2022-11-14T07:05:40;178.03;;;54.93;;
51866;SDS011;52862;52.504;13.480;2022-11-14T07:08:06;202.10;;;58.07;;
51866;SDS011;52862;52.504;13.480;2022-11-14T07:10:33;163.77;;;53.90;;
51866;SDS011;52862;52.504;13.480;2022-11-14T07:13:00;174.80;;;54.80;;
51866;SDS011;52862;52.504;13.480;2022-11-14T07:15:27;165.73;;;53.17;;
51866;SDS011;52862;52.504;13.480;2022-11-14T07:17:56;168.13;;;52.27;;
51866;SDS011;52862;52.504;13.480;2022-11-14T07:20:23;180.57;;;54.00;;
51866;SDS011;52862;52.504;13.480;2022-11-14T07:22:50;193.00;;;58.90;;
51866;SDS011;52862;52.504;13.480;2022-11-14T07:25:16;169.10;;;51.63;;
51866;SDS011;52862;52.504;13.480;2022-11-14T07:27:45;166.13;;;52.57;;
51866;SDS011;52862;52.504;13.480;2022-11-14T07:30:13;163.10;;;51.57;;
51866;SDS011;52862;52.504;13.480;2022-11-14T07:32:40;163.30;;;51.83;;
51866;SDS011;52862;52.504;13.480;2022-11-14T07:35:07;151.03;;;49.80;;
51866;SDS011;52862;52.504;13.480;2022-11-14T07:37:34;164.80;;;51.57;;
51866;SDS011;52862;52.504;13.480;2022-11-14T07:40:00;166.17;;;51.83;;
51866;SDS011;52862;52.504;13.480;2022-11-14T07:42:27;157.87;;;50.17;;
51866;SDS011;52862;52.504;13.480;2022-11-14T07:44:54;151.67;;;49.77;;
51866;SDS011;52862;52.504;13.480;2022-11-14T07:47:21;154.07;;;52.10;;
51866;SDS011;52862;52.504;13.480;2022-11-14T07:49:48;161.40;;;51.13;;
51866;SDS011;52862;52.504;13.480;2022-11-14T07:52:17;160.03;;;53.83;;
51866;SDS011;52862;52.504;13.480;2022-11-14T07:54:43;170.50;;;53.33;;
51866;SDS011;52862;52.504;13.480;2022-11-14T07:57:10;164.20;;;53.60;;
51866;SDS011;52862;52.504;13.480;2022-11-14T07:59:37;179.83;;;54.30;;
51866;SDS011;52862;52.504;13.480;2022-11-14T08:02:03;185.60;;;53.70;;
51866;SDS011;52862;52.504;13.480;2022-11-14T08:04:30;155.93;;;50.77;;
51866;SDS011;52862;52.504;13.480;2022-11-14T08:06:57;169.73;;;50.57;;
51866;SDS011;52862;52.504;13.480;2022-11-14T08:09:24;166.90;;;50.83;;
51866;SDS011;52862;52.504;13.480;2022-11-14T08:11:51;164.80;;;52.33;;
51866;SDS011;52862;52.504;13.480;2022-11-14T08:14:17;159.87;;;51.33;;
51866;SDS011;52862;52.504;13.480;2022-11-14T08:16:44;156.03;;;49.97;;
51866;SDS011;52862;52.504;13.480;2022-11-14T08:19:10;159.17;;;50.23;;
51866;SDS011;52862;52.504;13.480;2022-11-14T08:21:38;159.50;;;49.10;;
51866;SDS011;52862;52.504;13.480;2022-11-14T08:24:05;150.40;;;48.27;;
51866;SDS011;52862;52.504;13.480;2022-11-14T08:26:32;145.00;;;48.90;;
51866;SDS011;52862;52.504;13.480;2022-11-14T08:29:00;156.30;;;50.23;;
51866;SDS011;52862;52.504;13.480;2022-11-14T08:31:27;151.57;;;49.87;;
51866;SDS011;52862;52.504;13.480;2022-11-14T08:33:53;145.23;;;49.00;;
51866;SDS011;52862;52.504;13.480;2022-11-14T08:36:20;142.97;;;49.30;;
51866;SDS011;52862;52.504;13.480;2022-11-14T08:38:48;149.03;;;48.33;;
51866;SDS011;52862;52.504;13.480;2022-11-14T08:41:17;153.17;;;48.60;;
51866;SDS011;52862;52.504;13.480;2022-11-14T08:43:43;148.50;;;45.43;;
51866;SDS011;52862;52.504;13.480;2022-11-14T08:46:10;145.27;;;45.70;;
51866;SDS011;52862;52.504;13.480;2022-11-14T08:48:37;131.47;;;43.93;;
51866;SDS011;52862;52.504;13.480;2022-11-14T08:51:04;134.13;;;44.77;;
51866;SDS011;52862;52.504;13.480;2022-11-14T08:53:32;133.70;;;44.60;;
51866;SDS011;52862;52.504;13.480;2022-11-14T08:55:59;141.00;;;44.17;;
51866;SDS011;52862;52.504;13.480;2022-11-14T08:58:26;140.50;;;44.53;;
51866;SDS011;52862;52.504;13.480;2022-11-14T09:00:58;138.67;;;45.90;;
51866;SDS011;52862;52.504;13.480;2022-11-14T09:03:26;135.83;;;43.23;;
51866;SDS011;52862;52.504;13.480;2022-11-14T09:05:52;131.63;;;44.97;;
51866;SDS011;52862;52.504;13.480;2022-11-14T09:08:19;131.90;;;43.20;;
51866;SDS011;52862;52.504;13.480;2022-11-14T09:10:46;131.33;;;44.33;;
51866;SDS011;52862;52.504;13.480;2022-11-14T09:13:13;125.87;;;42.67;;
51866;SDS011;52862;52.504;13.480;2022-11-14T09:15:40;143.37;;;45.23;;
51866;SDS011;52862;52.504;13.480;2022-11-14T09:18:08;136.17;;;48.70;;
51866;SDS011;52862;52.504;13.480;2022-11-14T09:20:35;128.33;;;44.20;;
51866;SDS011;52862;52.504;13.480;2022-11-14T09:23:05;131.77;;;43.73;;
51866;SDS011;52862;52.504;13.480;2022-11-14T09:25:32;121.70;;;41.97;;
51866;SDS011;52862;52.504;13.480;2022-11-14T09:28:02;124.83;;;43.83;;
51866;SDS011;52862;52.504;13.480;2022-11-14T09:30:31;124.67;;;43.17;;
51866;SDS011;52862;52.504;13.480;2022-11-14T09:32:59;133.40;;;43.53;;
51866;SDS011;52862;52.504;13.480;2022-11-14T09:35:26;122.33;;;42.00;;
51866;SDS011;52862;52.504;13.480;2022-11-14T09:37:58;114.70;;;40.17;;
51866;SDS011;52862;52.504;13.480;2022-11-14T09:40:25;117.53;;;43.40;;
51866;SDS011;52862;52.504;13.480;2022-11-14T09:43:02;125.10;;;41.73;;
51866;SDS011;52862;52.504;13.480;2022-11-14T09:45:39;115.03;;;39.87;;
51866;SDS011;52862;52.504;13.480;2022-11-14T09:48:13;113.07;;;39.40;;
51866;SDS011;52862;52.504;13.480;2022-11-14T09:50:44;123.37;;;39.27;;
51866;SDS011;52862;52.504;13.480;2022-11-14T09:53:19;109.03;;;39.37;;
51866;SDS011;52862;52.504;13.480;2022-11-14T09:55:54;111.83;;;38.07;;
51866;SDS011;52862;52.504;13.480;2022-11-14T09:58:20;110.10;;;40.60;;
51866;SDS011;52862;52.504;13.480;2022-11-14T10:00:50;117.07;;;39.73;;
51866;SDS011;52862;52.504;13.480;2022-11-14T10:03:22;112.07;;;39.30;;
51866;SDS011;52862;52.504;13.480;2022-11-14T10:08:54;103.40;;;37.17;;
51866;SDS011;52862;52.504;13.480;2022-11-14T10:11:41;117.87;;;40.20;;
51866;SDS011;52862;52.504;13.480;2022-11-14T10:17:22;108.23;;;38.53;;
51866;SDS011;52862;52.504;13.480;2022-11-14T10:20:08;104.97;;;36.17;;
51866;SDS011;52862;52.504;13.480;2022-11-14T10:22:45;109.40;;;39.03;;
51866;SDS011;52862;52.504;13.480;2022-11-14T10:25:33;100.23;;;36.73;;
51866;SDS011;52862;52.504;13.480;2022-11-14T10:31:04;107.83;;;37.37;;
51866;SDS011;52862;52.504;13.480;2022-11-14T10:33:45;104.27;;;35.50;;
51866;SDS011;52862;52.504;13.480;2022-11-14T10:36:19;99.73;;;37.07;;
51866;SDS011;52862;52.504;13.480;2022-11-14T10:38:53;101.80;;;37.27;;
51866;SDS011;52862;52.504;13.480;2022-11-14T10:41:28;97.63;;;37.23;;
51866;SDS011;52862;52.504;13.480;2022-11-14T10:44:16;97.30;;;35.57;;
51866;SDS011;52862;52.504;13.480;2022-11-14T10:46:49;95.90;;;37.37;;
51866;SDS011;52862;52.504;13.480;2022-11-14T10:49:19;108.93;;;36.43;;
51866;SDS011;52862;52.504;13.480;2022-11-14T10:51:49;96.13;;;36.47;;
51866;SDS011;52862;52.504;13.480;2022-11-14T10:54:18;93.33;;;36.37;;
51866;SDS011;52862;52.504;13.480;2022-11-14T10:56:51;96.10;;;35.57;;
51866;SDS011;52862;52.504;13.480;2022-11-14T10:59:19;101.10;;;34.80;;
51866;SDS011;52862;52.504;13.480;2022-11-14T11:01:52;87.97;;;35.37;;
51866;SDS011;52862;52.504;13.480;2022-11-14T11:04:22;85.30;;;34.77;;
51866;SDS011;52862;52.504;13.480;2022-11-14T11:06:52;101.83;;;36.17;;
51866;SDS011;52862;52.504;13.480;2022-11-14T11:09:21;87.37;;;34.53;;
51866;SDS011;52862;52.504;13.480;2022-11-14T11:12:13;90.27;;;35.33;;
51866;SDS011;52862;52.504;13.480;2022-11-14T11:14:43;95.13;;;35.97;;
51866;SDS011;52862;52.504;13.480;2022-11-14T11:17:14;91.10;;;35.03;;
51866;SDS011;52862;52.504;13.480;2022-11-14T11:19:45;98.33;;;36.90;;
51866;SDS011;52862;52.504;13.480;2022-11-14T11:22:23;92.40;;;34.37;;
51866;SDS011;52862;52.504;13.480;2022-11-14T11:24:54;86.13;;;35.17;;
51866;SDS011;52862;52.504;13.480;2022-11-14T11:27:22;86.50;;;35.10;;
51866;SDS011;52862;52.504;13.480;2022-11-14T11:30:00;96.80;;;35.50;;
51866;SDS011;52862;52.504;13.480;2022-11-14T11:32:43;88.43;;;33.47;;
51866;SDS011;52862;52.504;13.480;2022-11-14T11:35:11;94.57;;;34.80;;
51866;SDS011;52862;52.504;13.480;2022-11-14T11:37:40;95.57;;;35.93;;
51866;SDS011;52862;52.504;13.480;2022-11-14T11:40:13;96.47;;;35.60;;
51866;SDS011;52862;52.504;13.480;2022-11-14T11:42:45;93.13;;;35.63;;
51866;SDS011;52862;52.504;13.480;2022-11-14T11:45:36;92.10;;;35.30;;
51866;SDS011;52862;52.504;13.480;2022-11-14T11:48:07;80.03;;;33.50;;
51866;SDS011;52862;52.504;13.480;2022-11-14T11:50:40;89.57;;;34.60;;
51866;SDS011;52862;52.504;13.480;2022-11-14T11:53:11;87.70;;;32.67;;
51866;SDS011;52862;52.504;13.480;2022-11-14T11:55:43;85.80;;;33.33;;
51866;SDS011;52862;52.504;13.480;2022-11-14T11:58:14;85.50;;;34.60;;
51866;SDS011;52862;52.504;13.480;2022-11-14T12:00:45;88.63;;;33.17;;
51866;SDS011;52862;52.504;13.480;2022-11-14T12:03:12;85.50;;;34.70;;
51866;SDS011;52862;52.504;13.480;2022-11-14T12:05:48;80.10;;;31.77;;
51866;SDS011;52862;52.504;13.480;2022-11-14T12:08:25;80.00;;;31.63;;
51866;SDS011;52862;52.504;13.480;2022-11-14T12:11:00;75.77;;;29.93;;
51866;SDS011;52862;52.504;13.480;2022-11-14T12:13:35;74.43;;;32.73;;
51866;SDS011;52862;52.504;13.480;2022-11-14T12:16:21;69.83;;;30.27;;
51866;SDS011;52862;52.504;13.480;2022-11-14T12:22:12;72.47;;;29.53;;
51866;SDS011;52862;52.504;13.480;2022-11-14T12:27:55;76.47;;;29.13;;
51866;SDS011;52862;52.504;13.480;2022-11-14T12:30:35;62.13;;;26.57;;
51866;SDS011;52862;52.504;13.480;2022-11-14T12:33:06;61.80;;;27.03;;
51866;SDS011;52862;52.504;13.480;2022-11-14T12:35:35;59.63;;;27.10;;
51866;SDS011;52862;52.504;13.480;2022-11-14T12:38:05;66.10;;;27.67;;
51866;SDS011;52862;52.504;13.480;2022-11-14T12:40:40;62.00;;;27.00;;
51866;SDS011;52862;52.504;13.480;2022-11-14T12:43:27;63.53;;;26.90;;
51866;SDS011;52862;52.504;13.480;2022-11-14T12:46:03;65.30;;;27.40;;
51866;SDS011;52862;52.504;13.480;2022-11-14T12:48:34;61.73;;;28.17;;
51866;SDS011;52862;52.504;13.480;2022-11-14T12:51:03;56.97;;;27.43;;
51866;SDS011;52862;52.504;13.480;2022-11-14T12:53:39;64.07;;;29.00;;
51866;SDS011;52862;52.504;13.480;2022-11-14T12:56:20;63.10;;;26.13;;
51866;SDS011;52862;52.504;13.480;2022-11-14T12:59:32;59.13;;;25.70;;
51866;SDS011;52862;52.504;13.480;2022-11-14T13:02:08;62.67;;;27.33;;
51866;SDS011;52862;52.504;13.480;2022-11-14T13:04:57;55.63;;;26.23;;
51866;SDS011;52862;52.504;13.480;2022-11-14T13:07:44;59.20;;;27.80;;
51866;SDS011;52862;52.504;13.480;2022-11-14T13:10:22;60.73;;;26.07;;
51866;SDS011;52862;52.504;13.480;2022-11-14T13:12:59;60.27;;;25.73;;
51866;SDS011;52862;52.504;13.480;2022-11-14T13:15:50;55.07;;;26.47;;
51866;SDS011;52862;52.504;13.480;2022-11-14T13:18:48;59.00;;;26.00;;
51866;SDS011;52862;52.504;13.480;2022-11-14T13:21:35;53.30;;;26.37;;
51866;SDS011;52862;52.504;13.480;2022-11-14T13:24:13;56.63;;;27.00;;
51866;SDS011;52862;52.504;13.480;2022-11-14T13:26:45;57.43;;;25.70;;
51866;SDS011;52862;52.504;13.480;2022-11-14T13:35:33;45.63;;;22.47;;
51866;SDS011;52862;52.504;13.480;2022-11-14T13:41:04;49.10;;;22.87;;
51866;SDS011;52862;52.504;13.480;2022-11-14T13:43:55;46.97;;;22.43;;
51866;SDS011;52862;52.504;13.480;2022-11-14T13:46:34;50.77;;;23.53;;
51866;SDS011;52862;52.504;13.480;2022-11-14T13:49:26;50.07;;;22.87;;
51866;SDS011;52862;52.504;13.480;2022-11-14T13:52:00;47.50;;;21.50;;
51866;SDS011;52862;52.504;13.480;2022-11-14T13:54:27;44.00;;;21.67;;
51866;SDS011;52862;52.504;13.480;2022-11-14T13:56:55;55.77;;;23.00;;
51866;SDS011;52862;52.504;13.480;2022-11-14T13:59:38;55.90;;;23.33;;
51866;SDS011;52862;52.504;13.480;2022-11-14T14:02:31;44.00;;;21.60;;
51866;SDS011;52862;52.504;13.480;2022-11-14T14:05:20;44.63;;;21.67;;
51866;SDS011;52862;52.504;13.480;2022-11-14T14:07:57;49.53;;;21.17;;
51866;SDS011;52862;52.504;13.480;2022-11-14T14:10:37;46.53;;;21.13;;
51866;SDS011;52862;52.504;13.480;2022-11-14T14:13:18;56.10;;;23.27;;
51866;SDS011;52862;52.504;13.480;2022-11-14T14:15:57;46.77;;;22.30;;
51866;SDS011;52862;52.504;13.480;2022-11-14T14:18:33;45.67;;;20.60;;
51866;SDS011;52862;52.504;13.480;2022-11-14T14:21:12;44.90;;;21.43;;
51866;SDS011;52862;52.504;13.480;2022-11-14T14:23:48;53.17;;;21.77;;
51866;SDS011;52862;52.504;13.480;2022-11-14T14:26:25;49.43;;;22.40;;
51866;SDS011;52862;52.504;13.480;2022-11-14T14:29:00;46.27;;;22.77;;
51866;SDS011;52862;52.504;13.480;2022-11-14T14:31:40;42.03;;;23.07;;
51866;SDS011;52862;52.504;13.480;2022-11-14T14:34:20;45.60;;;22.77;;
51866;SDS011;52862;52.504;13.480;2022-11-14T14:36:49;44.70;;;22.27;;
51866;SDS011;52862;52.504;13.480;2022-11-14T14:39:17;49.50;;;24.63;;